createdAt,value
2018-06-08T00:01:54.971Z,83.10
2018-06-08T00:04:23.715Z,82.90
2018-06-08T00:06:52.283Z,82.90
2018-06-08T00:09:20.824Z,83.00
2018-06-08T00:11:49.462Z,82.90
2018-06-08T00:14:18.050Z,83.10
2018-06-08T00:16:46.694Z,83.50
2018-06-08T00:19:15.336Z,83.50
2018-06-08T00:24:12.465Z,83.30
2018-06-08T00:26:41.026Z,83.60
2018-06-08T00:29:09.593Z,83.10
2018-06-08T00:31:38.136Z,83.60
2018-06-08T00:34:06.742Z,83.40
2018-06-08T00:36:35.328Z,83.50
2018-06-08T00:39:05.883Z,83.50
2018-06-08T00:41:34.478Z,83.30
2018-06-08T00:44:03.077Z,83.70
2018-06-08T00:46:31.615Z,83.40
2018-06-08T00:49:00.286Z,83.80
2018-06-08T00:51:28.867Z,83.90
2018-06-08T00:53:57.505Z,84.20
2018-06-08T00:56:37.231Z,84.00
2018-06-08T00:59:05.778Z,83.60
2018-06-08T01:01:34.534Z,82.80
2018-06-08T01:04:03.215Z,82.60
2018-06-08T01:06:31.803Z,82.60
2018-06-08T01:09:00.427Z,83.50
2018-06-08T01:11:28.976Z,83.60
2018-06-08T01:13:57.541Z,83.20
2018-06-08T01:16:26.176Z,83.30
2018-06-08T01:18:54.777Z,83.30
2018-06-08T01:21:23.411Z,83.20
2018-06-08T01:23:51.992Z,82.60
2018-06-08T01:26:20.655Z,82.40
2018-06-08T01:28:49.345Z,83.10
2018-06-08T01:31:17.998Z,83.30
2018-06-08T01:33:46.555Z,83.60
2018-06-08T01:36:15.142Z,83.60
2018-06-08T01:38:43.782Z,83.20
2018-06-08T01:41:12.442Z,83.50
2018-06-08T01:43:40.989Z,84.00
2018-06-08T01:46:09.657Z,84.00
2018-06-08T01:48:38.355Z,83.90
2018-06-08T01:51:06.943Z,84.40
2018-06-08T01:53:35.534Z,84.30
2018-06-08T01:56:04.346Z,84.80
2018-06-08T01:58:33.193Z,84.80
2018-06-08T02:01:02.719Z,85.50
2018-06-08T02:03:31.588Z,85.30
2018-06-08T02:06:00.579Z,85.20
2018-06-08T02:08:29.632Z,85.40
2018-06-08T02:10:58.467Z,85.60
2018-06-08T02:15:55.792Z,86.10
2018-06-08T02:18:24.741Z,86.10
2018-06-08T02:20:53.599Z,85.60
2018-06-08T02:23:22.369Z,85.20
2018-06-08T02:25:51.499Z,85.60
2018-06-08T02:28:20.120Z,85.50
2018-06-08T02:30:48.747Z,85.70
2018-06-08T02:33:17.435Z,86.00
2018-06-08T02:35:46.074Z,86.30
2018-06-08T02:38:14.663Z,86.30
2018-06-08T02:40:43.288Z,86.10
2018-06-08T02:45:40.234Z,86.70
2018-06-08T02:48:08.899Z,85.90
2018-06-08T02:50:37.535Z,86.10
2018-06-08T02:53:06.210Z,86.40
2018-06-08T02:55:34.881Z,86.40
2018-06-08T02:58:03.484Z,87.20
2018-06-08T03:00:32.043Z,87.70
2018-06-08T03:03:00.690Z,87.60
2018-06-08T03:05:29.386Z,86.80
2018-06-08T03:07:57.954Z,86.50
2018-06-08T03:10:26.550Z,87.10
2018-06-08T03:12:55.143Z,88.00
2018-06-08T03:15:23.828Z,88.20
2018-06-08T03:17:52.457Z,86.30
2018-06-08T03:20:21.175Z,86.00
2018-06-08T03:22:49.830Z,86.30
2018-06-08T03:25:18.345Z,86.50
2018-06-08T03:27:47.007Z,88.40
2018-06-08T03:30:15.527Z,88.80
2018-06-08T03:32:53.465Z,88.70
2018-06-08T03:35:22.042Z,88.40
2018-06-08T03:37:50.571Z,87.80
2018-06-08T03:40:19.210Z,87.00
2018-06-08T03:45:16.028Z,88.40
2018-06-08T03:47:44.980Z,88.70
2018-06-08T03:50:13.592Z,89.20
2018-06-08T03:52:42.188Z,89.50
2018-06-08T03:55:10.814Z,88.30
2018-06-08T03:57:39.472Z,89.10
2018-06-08T04:00:08.174Z,90.00
2018-06-08T04:02:36.805Z,90.00
2018-06-08T04:05:05.407Z,89.70
2018-06-08T04:07:34.111Z,90.20
2018-06-08T04:10:02.834Z,90.30
2018-06-08T04:12:31.471Z,90.30
2018-06-08T04:15:00.139Z,90.40
2018-06-08T04:17:28.739Z,90.70
2018-06-08T04:19:57.301Z,90.80
2018-06-08T04:22:26.060Z,90.90
2018-06-08T04:24:54.678Z,90.40
2018-06-08T04:27:23.344Z,88.70
2018-06-08T04:29:51.946Z,89.00
2018-06-08T04:32:20.519Z,89.20
2018-06-08T04:34:49.116Z,88.90
2018-06-08T04:37:17.699Z,89.30
2018-06-08T04:39:46.321Z,89.60
2018-06-08T04:42:14.971Z,89.30
2018-06-08T04:44:43.628Z,88.80
2018-06-08T04:47:12.221Z,88.50
2018-06-08T04:49:40.941Z,88.60
2018-06-08T04:52:09.582Z,88.10
2018-06-08T04:54:38.450Z,88.10
2018-06-08T04:57:07.820Z,88.20
2018-06-08T04:59:36.514Z,88.90
2018-06-08T05:02:05.263Z,89.20
2018-06-08T05:04:34.164Z,89.00
2018-06-08T05:07:03.857Z,89.50
2018-06-08T05:09:32.907Z,88.70
2018-06-08T05:12:01.702Z,88.20
2018-06-08T05:14:30.548Z,87.50
2018-06-08T05:17:00.430Z,86.80
2018-06-08T05:19:29.343Z,86.90
2018-06-08T05:24:27.098Z,84.40
2018-06-08T05:26:56.467Z,84.10
2018-06-08T05:29:25.437Z,84.40
2018-06-08T05:31:54.127Z,84.80
2018-06-08T05:34:22.934Z,85.30
2018-06-08T05:36:51.767Z,85.70
2018-06-08T05:39:20.618Z,85.90
2018-06-08T05:41:49.186Z,86.60
2018-06-08T05:44:40.669Z,87.10
2018-06-08T05:47:09.137Z,87.40
2018-06-08T05:49:37.674Z,87.00
2018-06-08T05:52:06.183Z,86.20
2018-06-08T05:54:34.863Z,85.70
2018-06-08T05:57:03.350Z,85.20
2018-06-08T05:59:31.938Z,85.00
2018-06-08T06:02:00.482Z,85.50
2018-06-08T06:04:28.972Z,85.40
2018-06-08T06:06:57.483Z,86.30
2018-06-08T06:09:26.010Z,86.20
2018-06-08T06:11:54.582Z,85.90
2018-06-08T06:14:23.479Z,86.00
2018-06-08T06:16:52.030Z,86.20
2018-06-08T06:19:20.547Z,85.90
2018-06-08T06:24:17.450Z,86.10
2018-06-08T06:26:46.016Z,86.60
2018-06-08T06:29:14.627Z,86.70
2018-06-08T06:31:43.243Z,87.20
2018-06-08T06:34:11.828Z,87.50
2018-06-08T06:36:40.398Z,87.80
2018-06-08T06:39:09.174Z,88.40
2018-06-08T06:41:37.852Z,88.60
2018-06-08T06:44:06.459Z,88.70
2018-06-08T06:46:35.110Z,88.40
2018-06-08T06:49:03.772Z,88.00
2018-06-08T06:51:32.441Z,88.00
2018-06-08T06:54:01.019Z,87.80
2018-06-08T06:56:29.644Z,88.50
2018-06-08T06:58:58.239Z,89.70
2018-06-08T07:01:26.821Z,88.90
2018-06-08T07:03:55.469Z,88.90
2018-06-08T07:06:24.135Z,89.10
2018-06-08T07:08:52.767Z,89.10
2018-06-08T07:11:21.399Z,89.20
2018-06-08T07:13:50.160Z,89.60
2018-06-08T07:16:18.740Z,88.50
2018-06-08T07:18:47.300Z,88.00
2018-06-08T07:21:15.829Z,86.90
2018-06-08T07:23:44.422Z,85.70
2018-06-08T07:26:13.019Z,84.90
2018-06-08T07:28:41.700Z,84.00
2018-06-08T07:31:10.281Z,83.00
2018-06-08T07:33:39.177Z,82.50
2018-06-08T07:36:07.791Z,81.50
2018-06-08T07:38:36.278Z,81.30
2018-06-08T07:41:04.866Z,81.50
2018-06-08T07:43:33.636Z,81.10
2018-06-08T07:46:02.191Z,80.70
2018-06-08T07:48:30.752Z,78.60
2018-06-08T07:50:59.379Z,77.70
2018-06-08T07:53:27.982Z,78.00
2018-06-08T07:55:56.674Z,78.90
2018-06-08T07:58:25.298Z,77.70
2018-06-08T08:00:53.955Z,77.10
2018-06-08T08:03:22.554Z,77.80
2018-06-08T08:05:51.287Z,77.70
2018-06-08T08:08:19.899Z,77.30
2018-06-08T08:10:48.550Z,76.70
2018-06-08T08:13:17.080Z,76.40
2018-06-08T08:15:45.756Z,77.00
2018-06-08T08:18:14.411Z,77.70
2018-06-08T08:20:43.056Z,77.20
2018-06-08T08:23:11.620Z,77.10
2018-06-08T08:25:40.288Z,77.10
2018-06-08T08:28:08.903Z,76.50
2018-06-08T08:30:37.509Z,75.40
2018-06-08T08:33:06.120Z,75.40
2018-06-08T08:35:34.688Z,75.50
2018-06-08T08:38:03.292Z,75.60
2018-06-08T08:40:32.008Z,75.60
2018-06-08T08:43:00.740Z,76.70
2018-06-08T08:45:29.332Z,77.60
2018-06-08T08:47:57.972Z,78.00
2018-06-08T08:50:26.839Z,79.10
2018-06-08T08:52:55.381Z,78.60
2018-06-08T08:55:23.859Z,78.20
2018-06-08T08:57:52.398Z,76.80
2018-06-08T09:00:20.972Z,76.00
2018-06-08T09:05:17.838Z,75.20
2018-06-08T09:10:14.528Z,76.00
2018-06-08T09:12:42.969Z,77.50
2018-06-08T09:15:11.864Z,78.30
2018-06-08T09:20:08.785Z,78.40
2018-06-08T09:22:37.651Z,76.50
2018-06-08T09:25:06.145Z,74.80
2018-06-08T09:27:34.739Z,74.60
2018-06-08T09:30:03.354Z,74.90
2018-06-08T09:32:31.948Z,74.20
2018-06-08T09:35:00.560Z,74.10
2018-06-08T09:37:29.113Z,74.20
2018-06-08T09:39:57.640Z,75.40
2018-06-08T09:42:26.162Z,74.90
2018-06-08T09:47:23.139Z,76.00
2018-06-08T09:49:51.925Z,77.40
2018-06-08T09:52:20.514Z,78.50
2018-06-08T09:54:49.097Z,79.60
2018-06-08T09:57:17.618Z,79.10
2018-06-08T09:59:46.207Z,78.50
2018-06-08T10:02:14.731Z,79.20
2018-06-08T10:04:43.214Z,79.60
2018-06-08T10:07:11.980Z,79.50
2018-06-08T10:09:40.581Z,80.40
2018-06-08T10:12:09.412Z,78.80
2018-06-08T10:14:38.890Z,78.80
2018-06-08T10:17:07.488Z,78.50
2018-06-08T10:19:36.053Z,79.30
2018-06-08T10:22:04.788Z,78.90
2018-06-08T10:24:33.367Z,79.40
2018-06-08T10:27:02.044Z,79.70
2018-06-08T10:29:30.707Z,79.50
2018-06-08T10:31:59.200Z,78.90
2018-06-08T10:34:41.548Z,79.60
2018-06-08T10:37:10.201Z,79.90
2018-06-08T10:39:38.738Z,80.30
2018-06-08T10:42:07.450Z,79.70
2018-06-08T10:44:36.002Z,79.90
2018-06-08T10:47:04.657Z,78.80
2018-06-08T10:49:33.600Z,79.50
2018-06-08T10:52:02.192Z,79.60
2018-06-08T10:54:40.184Z,79.90
2018-06-08T10:57:09.076Z,79.60
2018-06-08T10:59:44.757Z,79.80
2018-06-08T11:02:13.347Z,79.50
2018-06-08T11:04:42.034Z,78.30
2018-06-08T11:07:10.506Z,77.70
2018-06-08T11:09:39.083Z,78.80
2018-06-08T11:12:07.611Z,78.60
2018-06-08T11:14:36.119Z,78.40
2018-06-08T11:17:04.671Z,78.30
2018-06-08T11:19:33.188Z,78.30
2018-06-08T11:22:01.681Z,78.80
2018-06-08T11:24:30.576Z,78.30
2018-06-08T11:26:59.384Z,78.40
2018-06-08T11:29:27.943Z,78.40
2018-06-08T11:31:56.495Z,79.20
2018-06-08T11:34:25.084Z,79.10
2018-06-08T11:36:53.647Z,79.00
2018-06-08T11:39:22.139Z,79.30
2018-06-08T11:41:50.679Z,79.30
2018-06-08T11:44:19.207Z,78.90
2018-06-08T11:46:47.684Z,79.20
2018-06-08T11:49:16.574Z,78.00
2018-06-08T11:51:45.185Z,78.50
2018-06-08T11:54:13.802Z,78.70
2018-06-08T11:56:42.302Z,79.40
2018-06-08T11:59:11.143Z,78.70
2018-06-08T12:01:39.810Z,77.80
2018-06-08T12:04:08.451Z,78.10
2018-06-08T12:06:37.048Z,77.90
2018-06-08T12:09:08.426Z,77.20
2018-06-08T12:11:37.220Z,76.80
2018-06-08T12:14:05.890Z,76.70
2018-06-08T12:16:34.475Z,75.70
2018-06-08T12:19:03.099Z,76.20
2018-06-08T12:21:31.712Z,76.60
2018-06-08T12:24:00.424Z,74.90
2018-06-08T12:26:28.976Z,74.40
2018-06-08T12:28:57.697Z,72.70
2018-06-08T12:31:26.469Z,71.50
2018-06-08T12:33:55.012Z,72.40
2018-06-08T12:36:23.700Z,71.50
2018-06-08T12:38:52.297Z,72.10
2018-06-08T12:43:49.107Z,73.30
2018-06-08T12:46:17.621Z,72.40
2018-06-08T12:48:46.320Z,73.00
2018-06-08T12:51:14.901Z,73.00
2018-06-08T12:53:43.385Z,73.80
2018-06-08T12:56:11.858Z,74.70
2018-06-08T13:01:08.648Z,76.40
2018-06-08T13:03:37.186Z,76.30
2018-06-08T13:06:05.929Z,77.40
2018-06-08T13:08:34.554Z,78.40
2018-06-08T13:11:03.355Z,78.80
2018-06-08T13:16:09.679Z,79.70
2018-06-08T13:18:38.221Z,80.40
2018-06-08T13:21:06.916Z,80.10
2018-06-08T13:23:35.432Z,79.80
2018-06-08T13:26:03.960Z,80.30
2018-06-08T13:28:32.753Z,80.00
2018-06-08T13:33:30.045Z,79.40
2018-06-08T13:35:58.611Z,79.30
2018-06-08T13:38:27.224Z,79.60
2018-06-08T13:40:55.821Z,77.90
2018-06-08T13:43:25.498Z,77.40
2018-06-08T13:45:53.980Z,77.00
2018-06-08T13:48:30.390Z,73.20
2018-06-08T13:50:58.952Z,71.00
2018-06-08T13:56:21.021Z,70.90
2018-06-08T13:58:49.639Z,70.30
2018-06-08T14:01:25.930Z,70.20
2018-06-08T14:03:54.679Z,70.00
2018-06-08T14:06:23.480Z,69.00
2018-06-08T14:08:52.041Z,68.10
2018-06-08T14:11:20.648Z,67.70
2018-06-08T14:13:49.406Z,67.20
2018-06-08T14:16:18.007Z,68.70
2018-06-08T14:21:15.192Z,73.50
2018-06-08T14:23:53.266Z,72.80
2018-06-08T14:26:21.786Z,72.00
2018-06-08T14:28:50.372Z,73.00
2018-06-08T14:31:18.895Z,71.00
2018-06-08T14:33:47.509Z,71.60
2018-06-08T14:36:16.039Z,71.30
2018-06-08T14:38:44.601Z,71.00
2018-06-08T14:41:13.127Z,71.80
2018-06-08T14:43:41.578Z,71.50
2018-06-08T14:46:10.408Z,70.40
2018-06-08T14:48:38.889Z,70.00
2018-06-08T14:53:40.996Z,68.80
2018-06-08T14:56:09.491Z,69.10
2018-06-08T14:58:38.039Z,67.50
2018-06-08T15:01:07.044Z,68.90
2018-06-08T15:03:49.406Z,69.50
2018-06-08T15:06:24.608Z,69.80
2018-06-08T15:08:53.474Z,67.90
2018-06-08T15:11:21.964Z,67.90
2018-06-08T15:13:50.714Z,67.10
2018-06-08T15:16:19.265Z,66.80
2018-06-08T15:18:47.786Z,66.70
2018-06-08T15:21:16.305Z,67.00
2018-06-08T15:23:54.269Z,66.50
2018-06-08T15:26:22.810Z,66.60
2018-06-08T15:28:51.353Z,65.30
2018-06-08T15:31:20.309Z,66.00
2018-06-08T15:33:48.831Z,65.90
2018-06-08T15:36:17.303Z,66.60
2018-06-08T15:38:45.779Z,66.40
2018-06-08T15:41:14.271Z,65.80
2018-06-08T15:43:42.903Z,66.60
2018-06-08T15:46:11.397Z,65.40
2018-06-08T15:48:39.882Z,65.50
2018-06-08T15:51:08.390Z,66.60
2018-06-08T15:53:42.005Z,66.30
2018-06-08T15:56:10.485Z,66.30
2018-06-08T15:58:38.979Z,67.00
2018-06-08T16:01:07.502Z,68.30
2018-06-08T16:03:36.012Z,68.00
2018-06-08T16:06:04.549Z,68.70
2018-06-08T16:08:33.276Z,68.50
2018-06-08T16:11:01.729Z,69.00
2018-06-08T16:13:30.242Z,68.90
2018-06-08T16:15:58.816Z,70.20
2018-06-08T16:18:27.321Z,69.90
2018-06-08T16:20:55.875Z,70.20
2018-06-08T16:23:24.453Z,71.00
2018-06-08T16:25:52.934Z,70.90
2018-06-08T16:28:21.894Z,70.20
2018-06-08T16:30:50.471Z,70.00
2018-06-08T16:33:24.391Z,70.20
2018-06-08T16:35:52.914Z,71.40
2018-06-08T16:38:21.591Z,72.20
2018-06-08T16:40:50.251Z,72.50
2018-06-08T16:43:18.985Z,73.50
2018-06-08T16:45:47.505Z,73.80
2018-06-08T16:48:16.008Z,74.60
2018-06-08T16:50:44.574Z,75.70
2018-06-08T16:53:13.099Z,76.10
2018-06-08T16:55:41.623Z,76.90
2018-06-08T16:58:10.138Z,79.30
2018-06-08T17:03:06.958Z,79.60
2018-06-08T17:05:35.568Z,80.50
2018-06-08T17:10:32.314Z,83.00
2018-06-08T17:13:00.853Z,83.80
2018-06-08T17:15:30.037Z,85.70
2018-06-08T17:17:58.575Z,87.30
2018-06-08T17:20:27.401Z,87.40
2018-06-08T17:22:55.948Z,87.90
2018-06-08T17:25:25.471Z,89.40
2018-06-08T17:30:22.208Z,90.50
2018-06-08T17:32:51.066Z,90.90
2018-06-08T17:35:24.935Z,90.70
2018-06-08T17:37:53.561Z,91.40
2018-06-08T17:40:22.156Z,92.20
2018-06-08T17:42:50.690Z,92.40
2018-06-08T17:45:19.224Z,92.30
2018-06-08T17:47:47.810Z,92.30
2018-06-08T17:50:16.395Z,92.50
2018-06-08T17:52:44.939Z,93.40
2018-06-08T17:55:13.664Z,93.00
2018-06-08T17:57:42.387Z,93.40
2018-06-08T18:00:11.869Z,93.40
2018-06-08T18:05:27.300Z,93.60
2018-06-08T18:07:55.793Z,93.80
2018-06-08T18:10:24.342Z,94.10
2018-06-08T18:12:52.886Z,94.90
2018-06-08T18:18:27.962Z,95.90
2018-06-08T18:20:56.808Z,96.00
2018-06-08T18:23:25.369Z,96.90
2018-06-08T18:25:53.949Z,97.00
2018-06-08T18:28:22.512Z,96.40
2018-06-08T18:30:51.070Z,95.60
2018-06-08T18:33:19.637Z,95.80
2018-06-08T18:35:48.151Z,96.40
2018-06-08T18:38:16.715Z,97.20
2018-06-08T18:40:45.325Z,96.70
2018-06-08T18:43:13.811Z,96.10
2018-06-08T18:45:42.372Z,96.00
2018-06-08T18:48:11.000Z,96.30
2018-06-08T18:50:39.543Z,96.10
2018-06-08T18:53:08.051Z,96.60
2018-06-08T18:55:36.579Z,97.10
2018-06-08T18:58:05.190Z,97.40
2018-06-08T19:00:33.901Z,96.70
2018-06-08T19:03:02.454Z,97.10
2018-06-08T19:05:30.998Z,96.30
2018-06-08T19:07:59.516Z,96.90
2018-06-08T19:12:56.341Z,97.30
2018-06-08T19:15:25.032Z,97.10
2018-06-08T19:17:53.756Z,97.20
2018-06-08T19:20:22.304Z,97.60
2018-06-08T19:22:50.920Z,97.30
2018-06-08T19:28:21.677Z,97.70
2018-06-08T19:30:50.281Z,97.30
2018-06-08T19:33:18.772Z,97.10
2018-06-08T19:35:47.527Z,96.90
2018-06-08T19:38:16.096Z,97.10
2018-06-08T19:40:44.701Z,97.20
2018-06-08T19:43:22.663Z,97.40
2018-06-08T19:45:51.199Z,97.70
2018-06-08T19:48:19.666Z,97.80
2018-06-08T19:50:48.232Z,98.10
2018-06-08T19:53:16.751Z,98.20
2018-06-08T19:55:45.238Z,98.30
2018-06-08T19:58:13.770Z,98.40
2018-06-08T20:00:42.320Z,99.20
2018-06-08T20:03:10.847Z,99.10
2018-06-08T20:05:39.379Z,98.40
2018-06-08T20:08:07.863Z,98.00
2018-06-08T20:10:36.323Z,98.00
2018-06-08T20:13:04.882Z,98.00
2018-06-08T20:15:33.331Z,98.30
2018-06-08T20:18:01.842Z,98.00
2018-06-08T20:20:30.407Z,98.50
2018-06-08T20:22:59.271Z,98.50
2018-06-08T20:25:41.570Z,98.30
2018-06-08T20:28:10.078Z,98.00
2018-06-08T20:30:38.534Z,98.10
2018-06-08T20:33:07.070Z,98.30
2018-06-08T20:35:35.639Z,98.30
2018-06-08T20:38:04.142Z,98.50
2018-06-08T20:40:32.718Z,98.20
2018-06-08T20:43:01.288Z,98.30
2018-06-08T20:45:29.811Z,98.60
2018-06-08T20:47:58.676Z,98.30
2018-06-08T20:50:27.223Z,98.20
2018-06-08T20:52:55.766Z,98.30
2018-06-08T20:55:34.097Z,98.30
2018-06-08T20:58:02.721Z,98.50
2018-06-08T21:00:31.193Z,98.50
2018-06-08T21:02:59.762Z,98.40
2018-06-08T21:05:28.268Z,98.50
2018-06-08T21:07:56.807Z,98.80
2018-06-08T21:10:25.375Z,99.30
2018-06-08T21:12:53.887Z,99.40
2018-06-08T21:15:22.354Z,99.10
2018-06-08T21:17:50.918Z,99.10
2018-06-08T21:20:19.447Z,98.90
2018-06-08T21:22:48.134Z,99.90
2018-06-08T21:25:16.751Z,99.90
2018-06-08T21:27:45.592Z,99.70
2018-06-08T21:30:14.272Z,99.40
2018-06-08T21:32:42.846Z,99.20
2018-06-08T21:35:11.563Z,99.10
2018-06-08T21:37:40.083Z,99.30
2018-06-08T21:40:08.635Z,99.50
2018-06-08T21:42:37.140Z,99.40
2018-06-08T21:50:45.190Z,99.90
2018-06-08T21:53:13.657Z,99.90
2018-06-08T21:55:42.198Z,99.90
2018-06-08T21:58:10.763Z,99.90
2018-06-08T22:00:39.288Z,99.90
2018-06-08T22:03:07.790Z,99.90
2018-06-08T22:05:36.376Z,99.70
2018-06-08T22:08:04.915Z,99.80
2018-06-08T22:10:33.432Z,99.40
2018-06-08T22:13:01.942Z,99.50
2018-06-08T22:18:23.728Z,99.20
2018-06-08T22:20:52.230Z,99.10
2018-06-08T22:23:20.887Z,99.00
2018-06-08T22:25:49.475Z,99.10
2018-06-08T22:28:17.987Z,99.20
2018-06-08T22:30:46.495Z,99.50
2018-06-08T22:35:43.181Z,99.40
2018-06-08T22:38:11.735Z,99.40
2018-06-08T22:40:40.239Z,99.50
2018-06-08T22:43:08.751Z,99.40
2018-06-08T22:45:37.262Z,99.50
2018-06-08T22:48:05.758Z,99.20
2018-06-08T22:50:34.278Z,99.10
2018-06-08T22:53:02.819Z,99.30
2018-06-08T22:55:31.379Z,99.40
2018-06-08T22:57:59.881Z,99.50
2018-06-08T23:00:28.385Z,99.40
2018-06-08T23:02:57.536Z,99.40
2018-06-08T23:05:26.023Z,99.40
2018-06-08T23:07:54.616Z,99.40
2018-06-08T23:10:23.122Z,99.20
2018-06-08T23:12:51.657Z,99.20
2018-06-08T23:15:20.498Z,99.30
2018-06-08T23:17:49.047Z,99.30
2018-06-08T23:20:17.503Z,99.80
2018-06-08T23:22:46.103Z,99.90
2018-06-08T23:25:14.823Z,99.90
2018-06-08T23:27:43.254Z,99.90
2018-06-08T23:30:11.789Z,99.90
2018-06-08T23:32:40.373Z,99.20
2018-06-08T23:35:08.992Z,98.90
2018-06-08T23:37:37.431Z,98.50
2018-06-08T23:40:06.148Z,98.80
2018-06-08T23:42:34.718Z,99.30
2018-06-08T23:45:03.528Z,99.70
2018-06-08T23:47:32.098Z,99.90
2018-06-08T23:50:00.641Z,99.90
2018-06-08T23:52:29.050Z,99.90
2018-06-08T23:54:57.593Z,99.80
2018-06-08T23:57:26.115Z,99.80
2018-06-08T23:59:54.623Z,99.70
